Time,TemperatureF,DewpointF,PressureIn,WindDirection,WindDirectionDegrees,WindSpeedMPH,WindSpeedGustMPH,Humidity,HourlyPrecipIn,Conditions,Clouds,dailyrainin,SoftwareType,DateUTC
2013-04-22 00:05:00,62.2,45.3,30.26,SW,236,0.0,0.0,54,0.00,,,0.00,Wunderground v.1.15,2013-04-22 07:05:00,
2013-04-22 00:15:00,62.3,45.4,30.26,SW,236,0.0,0.0,54,0.00,,,0.00,Wunderground v.1.15,2013-04-22 07:15:00,
2013-04-22 00:20:00,62.0,46.1,30.26,SW,233,0.0,0.0,56,0.00,,,0.00,Wunderground v.1.15,2013-04-22 07:20:00,
2013-04-22 00:30:00,61.2,45.8,30.26,SW,233,0.0,0.0,57,0.00,,,0.00,Wunderground v.1.15,2013-04-22 07:30:00,
2013-04-22 00:40:00,60.8,45.5,30.26,SW,232,0.0,0.0,57,0.00,,,0.00,Wunderground v.1.15,2013-04-22 07:40:00,
2013-04-22 00:45:00,60.6,45.7,30.27,SW,232,0.0,0.0,58,0.00,,,0.00,Wunderground v.1.15,2013-04-22 07:45:00,
2013-04-22 00:55:00,60.3,45.5,30.27,SW,231,0.0,0.0,58,0.00,,,0.00,Wunderground v.1.15,2013-04-22 07:55:00,
2013-04-22 01:00:00,60.7,45.8,30.27,SW,231,0.0,2.0,58,0.00,,,0.00,Wunderground v.1.15,2013-04-22 08:00:00,
2013-04-22 01:10:00,60.6,45.7,30.27,SW,232,0.0,0.0,58,0.00,,,0.00,Wunderground v.1.15,2013-04-22 08:10:00,
2013-04-22 01:15:00,59.9,46.0,30.26,SW,226,0.0,2.0,60,0.00,,,0.00,Wunderground v.1.15,2013-04-22 08:15:00,
2013-04-22 01:25:00,59.2,47.0,30.26,South,190,1.0,1.0,64,0.00,,,0.00,Wunderground v.1.15,2013-04-22 08:25:00,
2013-04-22 01:35:00,60.0,46.9,30.26,SSW,193,0.0,0.0,62,0.00,,,0.00,Wunderground v.1.15,2013-04-22 08:35:00,
2013-04-22 01:40:00,59.9,47.7,30.26,SSW,193,0.0,1.0,64,0.00,,,0.00,Wunderground v.1.15,2013-04-22 08:40:00,
2013-04-22 01:45:00,59.7,48.3,30.26,SSW,193,0.0,1.0,66,0.00,,,0.00,Wunderground v.1.15,2013-04-22 08:45:00,
2013-04-22 01:50:00,59.4,48.0,30.26,SSW,195,0.0,0.0,66,0.00,,,0.00,Wunderground v.1.15,2013-04-22 08:50:00,
2013-04-22 02:00:00,59.0,48.1,30.26,SSW,195,0.0,0.0,67,0.00,,,0.00,Wunderground v.1.15,2013-04-22 09:00:00,
2013-04-22 02:10:00,58.3,47.8,30.26,SSW,195,0.0,0.0,68,0.00,,,0.00,Wunderground v.1.15,2013-04-22 09:10:00,
2013-04-22 02:15:00,57.8,47.3,30.26,SSW,195,0.0,0.0,68,0.00,,,0.00,Wunderground v.1.15,2013-04-22 09:15:00,
2013-04-22 02:25:00,57.3,47.6,30.25,SSW,195,0.0,0.0,70,0.00,,,0.00,Wunderground v.1.15,2013-04-22 09:25:00,
2013-04-22 02:30:00,57.2,47.9,30.25,SSW,195,0.0,0.0,71,0.00,,,0.00,Wunderground v.1.15,2013-04-22 09:30:00,
2013-04-22 02:40:00,57.4,47.7,30.25,SSW,195,0.0,0.0,70,0.00,,,0.00,Wunderground v.1.15,2013-04-22 09:40:00,
2013-04-22 02:45:00,57.6,48.3,30.25,SSW,195,0.0,0.0,71,0.00,,,0.00,Wunderground v.1.15,2013-04-22 09:45:00,
2013-04-22 02:55:00,57.0,47.7,30.25,SSW,198,0.0,0.0,71,0.00,,,0.00,Wunderground v.1.15,2013-04-22 09:55:00,
2013-04-22 03:00:00,56.4,47.5,30.25,SSW,198,0.0,0.0,72,0.00,,,0.00,Wunderground v.1.15,2013-04-22 10:00:00,
2013-04-22 03:10:00,55.7,47.2,30.24,SSW,198,0.0,0.0,73,0.00,,,0.00,Wunderground v.1.15,2013-04-22 10:10:00,
2013-04-22 03:20:00,55.3,46.8,30.24,SSW,198,0.0,0.0,73,0.00,,,0.00,Wunderground v.1.15,2013-04-22 10:20:00,
2013-04-22 03:30:00,54.6,46.5,30.24,SSW,198,0.0,0.0,74,0.00,,,0.00,Wunderground v.1.15,2013-04-22 10:30:00,
2013-04-22 03:35:00,54.6,46.1,30.24,SSW,198,0.0,0.0,73,0.00,,,0.00,Wunderground v.1.15,2013-04-22 10:35:00,
2013-04-22 03:45:00,54.4,46.6,30.24,SSW,198,0.0,0.0,75,0.00,,,0.00,Wunderground v.1.15,2013-04-22 10:45:00,
2013-04-22 03:50:00,54.7,47.3,30.24,SSW,198,0.0,0.0,76,0.00,,,0.00,Wunderground v.1.15,2013-04-22 10:50:00,
2013-04-22 04:00:00,55.8,48.3,30.24,SSW,198,0.0,0.0,76,0.00,,,0.00,Wunderground v.1.15,2013-04-22 11:00:00,
2013-04-22 04:10:00,56.2,48.7,30.24,SSW,198,0.0,0.0,76,0.00,,,0.00,Wunderground v.1.15,2013-04-22 11:10:00,
2013-04-22 04:20:00,56.5,49.0,30.24,SSW,199,0.0,0.0,76,0.00,,,0.00,Wunderground v.1.15,2013-04-22 11:20:00,
2013-04-22 04:30:00,55.8,49.0,30.24,SSW,198,0.0,0.0,78,0.00,,,0.00,Wunderground v.1.15,2013-04-22 11:30:00,
2013-04-22 04:35:00,55.8,49.0,30.24,SSW,198,0.0,0.0,78,0.00,,,0.00,Wunderground v.1.15,2013-04-22 11:35:00,
2013-04-22 04:45:00,55.1,48.4,30.24,SSW,198,0.0,0.0,78,0.00,,,0.00,Wunderground v.1.15,2013-04-22 11:45:00,
2013-04-22 04:50:00,54.8,48.4,30.25,SSW,198,0.0,0.0,79,0.00,,,0.00,Wunderground v.1.15,2013-04-22 11:50:00,
2013-04-22 05:00:00,55.5,48.1,30.24,SSW,196,0.0,0.0,76,0.00,,,0.00,Wunderground v.1.15,2013-04-22 12:00:00,
2013-04-22 05:10:00,55.7,47.9,30.24,SSW,197,0.0,0.0,75,0.00,,,0.00,Wunderground v.1.15,2013-04-22 12:10:00,
2013-04-22 05:15:00,55.4,47.6,30.25,SSW,197,0.0,0.0,75,0.00,,,0.00,Wunderground v.1.15,2013-04-22 12:15:00,
2013-04-22 05:25:00,55.0,47.6,30.25,SSW,197,0.0,0.0,76,0.00,,,0.00,Wunderground v.1.15,2013-04-22 12:25:00,
2013-04-22 05:35:00,54.9,47.5,30.25,SSW,200,0.0,0.0,76,0.00,,,0.00,Wunderground v.1.15,2013-04-22 12:35:00,
2013-04-22 05:40:00,54.7,47.3,30.25,SSW,200,0.0,0.0,76,0.00,,,0.00,Wunderground v.1.15,2013-04-22 12:40:00,
2013-04-22 05:50:00,54.5,47.4,30.25,SSW,200,0.0,0.0,77,0.00,,,0.00,Wunderground v.1.15,2013-04-22 12:50:00,
2013-04-22 05:55:00,54.1,47.0,30.25,SSW,200,0.0,0.0,77,0.00,,,0.00,Wunderground v.1.15,2013-04-22 12:55:00,
2013-04-22 06:00:00,53.9,47.2,30.25,SSW,200,0.0,0.0,78,0.00,,,0.00,Wunderground v.1.15,2013-04-22 13:00:00,
2013-04-22 06:10:00,53.7,47.0,30.25,SSW,200,0.0,0.0,78,0.00,,,0.00,Wunderground v.1.15,2013-04-22 13:10:00,
2013-04-22 06:15:00,53.7,47.3,30.25,SSW,200,0.0,0.0,79,0.00,,,0.00,Wunderground v.1.15,2013-04-22 13:15:00,
2013-04-22 06:20:00,53.4,46.7,30.25,SSW,200,0.0,0.0,78,0.00,,,0.00,Wunderground v.1.15,2013-04-22 13:20:00,
2013-04-22 06:30:00,52.9,46.6,30.25,SSW,200,0.0,0.0,79,0.00,,,0.00,Wunderground v.1.15,2013-04-22 13:30:00,
2013-04-22 06:35:00,53.0,46.7,30.25,SSW,200,0.0,0.0,79,0.00,,,0.00,Wunderground v.1.15,2013-04-22 13:35:00,
2013-04-22 06:45:00,52.8,46.1,30.26,SSW,200,0.0,0.0,78,0.00,,,0.00,Wunderground v.1.15,2013-04-22 13:45:00,
2013-04-22 06:55:00,52.6,46.6,30.26,SSW,200,0.0,0.0,80,0.00,,,0.00,Wunderground v.1.15,2013-04-22 13:55:00,
2013-04-22 07:00:00,53.1,46.8,30.26,SSW,200,0.0,0.0,79,0.00,,,0.00,Wunderground v.1.15,2013-04-22 14:00:00,
2013-04-22 07:10:00,55.1,47.7,30.26,SSW,200,0.0,0.0,76,0.00,,,0.00,Wunderground v.1.15,2013-04-22 14:10:00,
2013-04-22 07:15:00,56.0,47.8,30.27,SSW,200,0.0,0.0,74,0.00,,,0.00,Wunderground v.1.15,2013-04-22 14:15:00,
2013-04-22 07:25:00,56.6,47.7,30.27,SSW,201,0.0,0.0,72,0.00,,,0.00,Wunderground v.1.15,2013-04-22 14:25:00,
2013-04-22 07:35:00,57.0,48.8,30.27,SSW,202,0.0,0.0,74,0.00,,,0.00,Wunderground v.1.15,2013-04-22 14:35:00,
2013-04-22 07:45:00,58.3,49.7,30.27,SSW,202,0.0,0.0,73,0.00,,,0.00,Wunderground v.1.15,2013-04-22 14:45:00,
2013-04-22 07:55:00,60.6,50.4,30.27,SSW,201,0.0,0.0,69,0.00,,,0.00,Wunderground v.1.15,2013-04-22 14:55:00,
2013-04-22 08:00:00,60.9,49.9,30.28,SSW,197,0.0,0.0,67,0.00,,,0.00,Wunderground v.1.15,2013-04-22 15:00:00,
2013-04-22 08:10:00,61.7,50.2,30.27,SSW,198,0.0,0.0,66,0.00,,,0.00,Wunderground v.1.15,2013-04-22 15:10:00,
2013-04-22 08:20:00,62.0,50.9,30.27,SSW,200,0.0,0.0,67,0.00,,,0.00,Wunderground v.1.15,2013-04-22 15:20:00,
2013-04-22 08:25:00,62.9,52.6,30.27,SSW,200,0.0,0.0,69,0.00,,,0.00,Wunderground v.1.15,2013-04-22 15:25:00,
2013-04-22 08:35:00,65.1,52.6,30.27,SSW,198,0.0,0.0,64,0.00,,,0.00,Wunderground v.1.15,2013-04-22 15:35:00,
2013-04-22 08:40:00,64.9,52.0,30.27,SSW,201,0.0,0.0,63,0.00,,,0.00,Wunderground v.1.15,2013-04-22 15:40:00,
2013-04-22 08:50:00,63.8,51.4,30.27,SSW,211,0.0,0.0,64,0.00,,,0.00,Wunderground v.1.15,2013-04-22 15:50:00,
2013-04-22 08:55:00,63.8,52.6,30.27,SSW,210,0.0,0.0,67,0.00,,,0.00,Wunderground v.1.15,2013-04-22 15:55:00,
2013-04-22 09:00:00,65.2,53.1,30.27,SSW,200,0.0,0.0,65,0.00,,,0.00,Wunderground v.1.15,2013-04-22 16:00:00,
2013-04-22 09:10:00,67.2,51.0,30.27,SSW,200,0.0,0.0,56,0.00,,,0.00,Wunderground v.1.15,2013-04-22 16:10:00,
2013-04-22 09:15:00,67.9,53.0,30.27,South,190,1.0,1.0,59,0.00,,,0.00,Wunderground v.1.15,2013-04-22 16:15:00,
2013-04-22 09:25:00,69.0,53.1,30.27,SSW,198,0.0,1.0,57,0.00,,,0.00,Wunderground v.1.15,2013-04-22 16:25:00,
2013-04-22 09:30:00,69.1,51.8,30.27,South,184,0.0,0.0,54,0.00,,,0.00,Wunderground v.1.15,2013-04-22 16:30:00,
2013-04-22 09:40:00,70.2,48.4,30.26,SSW,203,0.0,0.0,46,0.00,,,0.00,Wunderground v.1.15,2013-04-22 16:40:00,
2013-04-22 09:50:00,71.1,52.6,30.26,SSW,205,1.0,1.0,52,0.00,,,0.00,Wunderground v.1.15,2013-04-22 16:50:00,
2013-04-22 10:00:00,72.6,50.0,30.26,South,184,0.0,1.0,45,0.00,,,0.00,Wunderground v.1.15,2013-04-22 17:00:00,
2013-04-22 10:05:00,73.2,51.2,30.26,SSW,207,0.0,1.0,46,0.00,,,0.00,Wunderground v.1.15,2013-04-22 17:05:00,
2013-04-22 10:10:00,72.9,49.7,30.26,SSW,207,0.0,1.0,44,0.00,,,0.00,Wunderground v.1.15,2013-04-22 17:10:00,
2013-04-22 10:15:00,72.7,49.5,30.26,SSW,212,1.0,2.0,44,0.00,,,0.00,Wunderground v.1.15,2013-04-22 17:15:00,
2013-04-22 10:25:00,73.0,48.5,30.26,SSW,203,2.0,2.0,42,0.00,,,0.00,Wunderground v.1.15,2013-04-22 17:25:00,
2013-04-22 10:30:00,73.1,46.7,30.26,West,277,2.0,3.0,39,0.00,,,0.00,Wunderground v.1.15,2013-04-22 17:30:00,
2013-04-22 10:40:00,73.8,45.9,30.26,NNW,345,2.0,4.0,37,0.00,,,0.00,Wunderground v.1.15,2013-04-22 17:40:00,
2013-04-22 10:45:00,74.0,46.8,30.26,WSW,240,2.0,4.0,38,0.00,,,0.00,Wunderground v.1.15,2013-04-22 17:45:00,
2013-04-22 10:55:00,75.3,43.4,30.26,West,274,2.0,2.0,32,0.00,,,0.00,Wunderground v.1.15,2013-04-22 17:55:00,
2013-04-22 11:00:00,75.5,42.7,30.26,NW,319,3.0,3.0,31,0.00,,,0.00,Wunderground v.1.15,2013-04-22 18:00:00,
2013-04-22 11:05:00,76.3,41.7,30.26,SW,229,2.0,3.0,29,0.00,,,0.00,Wunderground v.1.15,2013-04-22 18:05:00,
2013-04-22 11:15:00,77.0,40.4,30.25,West,277,3.0,7.0,27,0.00,,,0.00,Wunderground v.1.15,2013-04-22 18:15:00,
2013-04-22 11:20:00,77.4,37.8,30.26,ESE,103,4.0,4.0,24,0.00,,,0.00,Wunderground v.1.15,2013-04-22 18:20:00,
2013-04-22 11:30:00,78.3,36.3,30.25,North,360,3.0,7.0,22,0.00,,,0.00,Wunderground v.1.15,2013-04-22 18:30:00,
2013-04-22 11:40:00,78.8,37.9,30.25,NNW,338,4.0,4.0,23,0.00,,,0.00,Wunderground v.1.15,2013-04-22 18:40:00,
2013-04-22 11:50:00,79.1,34.6,30.25,WNW,291,5.0,6.0,20,0.00,,,0.00,Wunderground v.1.15,2013-04-22 18:50:00,
2013-04-22 11:55:00,79.2,33.4,30.25,WNW,291,5.0,6.0,19,0.00,,,0.00,Wunderground v.1.15,2013-04-22 18:55:00,
2013-04-22 12:00:00,79.6,33.7,30.25,North,356,5.0,5.0,19,0.00,,,0.00,Wunderground v.1.15,2013-04-22 19:00:00,
2013-04-22 12:10:00,79.9,33.9,30.24,NW,323,4.0,4.0,19,0.00,,,0.00,Wunderground v.1.15,2013-04-22 19:10:00,
2013-04-22 12:20:00,80.4,34.3,30.24,WNW,288,4.0,4.0,19,0.00,,,0.00,Wunderground v.1.15,2013-04-22 19:20:00,
2013-04-22 12:25:00,80.5,34.4,30.24,WNW,284,4.0,4.0,19,0.00,,,0.00,Wunderground v.1.15,2013-04-22 19:25:00,
2013-04-22 12:30:00,80.8,33.3,30.24,WSW,257,4.0,6.0,18,0.00,,,0.00,Wunderground v.1.15,2013-04-22 19:30:00,
2013-04-22 12:35:00,80.8,33.3,30.23,West,260,5.0,6.0,18,0.00,,,0.00,Wunderground v.1.15,2013-04-22 19:35:00,
2013-04-22 12:45:00,81.1,38.6,30.23,NW,317,3.0,4.0,22,0.00,,,0.00,Wunderground v.1.15,2013-04-22 19:45:00,
2013-04-22 12:50:00,81.2,35.0,30.23,WNW,285,4.0,4.0,19,0.00,,,0.00,Wunderground v.1.15,2013-04-22 19:50:00,
2013-04-22 13:00:00,81.3,35.1,30.22,West,270,5.0,5.0,19,0.00,,,0.00,Wunderground v.1.15,2013-04-22 20:00:00,
2013-04-22 13:10:00,81.2,33.6,30.22,West,264,5.0,6.0,18,0.00,,,0.00,Wunderground v.1.15,2013-04-22 20:10:00,
2013-04-22 13:20:00,81.2,32.2,30.22,ENE,70,4.0,4.0,17,0.00,,,0.00,Wunderground v.1.15,2013-04-22 20:20:00,
2013-04-22 13:25:00,81.6,35.3,30.22,WNW,302,5.0,6.0,19,0.00,,,0.00,Wunderground v.1.15,2013-04-22 20:25:00,
2013-04-22 13:35:00,82.1,35.7,30.21,WSW,239,4.0,5.0,19,0.00,,,0.00,Wunderground v.1.15,2013-04-22 20:35:00,
2013-04-22 13:40:00,82.3,37.2,30.21,North,5,3.0,3.0,20,0.00,,,0.00,Wunderground v.1.15,2013-04-22 20:40:00,
2013-04-22 13:45:00,82.1,40.6,30.21,WNW,283,3.0,3.0,23,0.00,,,0.00,Wunderground v.1.15,2013-04-22 20:45:00,
2013-04-22 13:50:00,82.0,37.0,30.21,WNW,297,3.0,5.0,20,0.00,,,0.00,Wunderground v.1.15,2013-04-22 20:50:00,
2013-04-22 14:00:00,82.6,34.8,30.21,SW,236,3.0,3.0,18,0.00,,,0.00,Wunderground v.1.15,2013-04-22 21:00:00,
2013-04-22 14:10:00,83.0,35.1,30.20,WSW,243,3.0,3.0,18,0.00,,,0.00,Wunderground v.1.15,2013-04-22 21:10:00,
2013-04-22 14:15:00,83.1,35.2,30.20,WSW,245,3.0,3.0,18,0.00,,,0.00,Wunderground v.1.15,2013-04-22 21:15:00,
2013-04-22 14:25:00,83.0,35.1,30.20,WSW,255,2.0,3.0,18,0.00,,,0.00,Wunderground v.1.15,2013-04-22 21:25:00,
2013-04-22 14:30:00,83.2,33.8,30.20,West,281,3.0,3.0,17,0.00,,,0.00,Wunderground v.1.15,2013-04-22 21:30:00,
2013-04-22 14:35:00,83.5,32.6,30.20,SW,217,2.0,3.0,16,0.00,,,0.00,Wunderground v.1.15,2013-04-22 21:35:00,
2013-04-22 14:45:00,84.9,33.7,30.19,SW,228,2.0,2.0,16,0.00,,,0.00,Wunderground v.1.15,2013-04-22 21:45:00,
2013-04-22 14:50:00,85.8,31.1,30.19,SW,231,2.0,2.0,14,0.00,,,0.00,Wunderground v.1.15,2013-04-22 21:50:00,
2013-04-22 15:00:00,86.4,31.6,30.19,SW,222,2.0,3.0,14,0.00,,,0.00,Wunderground v.1.15,2013-04-22 22:00:00,
2013-04-22 15:10:00,86.6,31.7,30.18,SSW,205,2.0,2.0,14,0.00,,,0.00,Wunderground v.1.15,2013-04-22 22:10:00,
2013-04-22 15:15:00,86.6,25.8,30.18,SSW,193,2.0,2.0,11,0.00,,,0.00,Wunderground v.1.15,2013-04-22 22:15:00,
2013-04-22 15:25:00,86.5,25.7,30.18,SSW,207,2.0,3.0,11,0.00,,,0.00,Wunderground v.1.15,2013-04-22 22:25:00,
2013-04-22 15:35:00,86.5,29.8,30.17,SW,221,2.0,2.0,13,0.00,,,0.00,Wunderground v.1.15,2013-04-22 22:35:00,
2013-04-22 15:45:00,86.8,28.1,30.17,SSW,212,2.0,2.0,12,0.00,,,0.00,Wunderground v.1.15,2013-04-22 22:45:00,
2013-04-22 15:50:00,86.4,31.6,30.17,SSW,201,2.0,2.0,14,0.00,,,0.00,Wunderground v.1.15,2013-04-22 22:50:00,
2013-04-22 16:00:00,86.5,27.8,30.17,SW,214,2.0,2.0,12,0.00,,,0.00,Wunderground v.1.15,2013-04-22 23:00:00,
2013-04-22 16:10:00,86.7,28.0,30.16,SSW,204,2.0,2.0,12,0.00,,,0.00,Wunderground v.1.15,2013-04-22 23:10:00,
2013-04-22 16:20:00,86.2,31.4,30.16,WSW,246,2.0,3.0,14,0.00,,,0.00,Wunderground v.1.15,2013-04-22 23:20:00,
2013-04-22 16:25:00,86.3,31.5,30.16,SW,225,2.0,3.0,14,0.00,,,0.00,Wunderground v.1.15,2013-04-22 23:25:00,
2013-04-22 16:35:00,86.5,33.4,30.15,NNW,341,1.0,2.0,15,0.00,,,0.00,Wunderground v.1.15,2013-04-22 23:35:00,
2013-04-22 16:40:00,86.0,36.1,30.15,North,6,2.0,2.0,17,0.00,,,0.00,Wunderground v.1.15,2013-04-22 23:40:00,
2013-04-22 16:50:00,85.7,34.3,30.15,North,355,1.0,2.0,16,0.00,,,0.00,Wunderground v.1.15,2013-04-22 23:50:00,
2013-04-22 17:00:00,86.0,33.0,30.15,West,262,1.0,1.0,15,0.00,,,0.00,Wunderground v.1.15,2013-04-23 00:00:00,
2013-04-22 17:15:00,85.6,29.1,30.15,NW,305,1.0,2.0,13,0.00,,,0.00,Wunderground v.1.15,2013-04-23 00:15:00,
2013-04-22 17:20:00,85.4,28.9,30.15,North,353,1.0,1.0,13,0.00,,,0.00,Wunderground v.1.15,2013-04-23 00:20:00,
2013-04-22 17:30:00,84.6,35.0,30.14,WSW,238,2.0,2.0,17,0.00,,,0.00,Wunderground v.1.15,2013-04-23 00:30:00,
2013-04-22 17:40:00,84.3,33.2,30.14,SW,225,1.0,3.0,16,0.00,,,0.00,Wunderground v.1.15,2013-04-23 00:40:00,
2013-04-22 17:45:00,83.6,34.2,30.14,NNW,328,2.0,3.0,17,0.00,,,0.00,Wunderground v.1.15,2013-04-23 00:45:00,
2013-04-22 17:55:00,82.5,34.7,30.15,SW,232,2.0,2.0,18,0.00,,,0.00,Wunderground v.1.15,2013-04-23 00:55:00,
2013-04-22 18:00:00,82.1,24.4,30.15,West,280,2.0,2.0,12,0.00,,,0.00,Wunderground v.1.15,2013-04-23 01:00:00,
2013-04-22 18:05:00,82.2,28.2,30.15,NNE,22,2.0,2.0,14,0.00,,,0.00,Wunderground v.1.15,2013-04-23 01:05:00,
2013-04-22 18:15:00,82.4,28.4,30.15,West,278,1.0,1.0,14,0.00,,,0.00,Wunderground v.1.15,2013-04-23 01:15:00,
2013-04-22 18:25:00,82.1,28.2,30.15,SW,236,2.0,2.0,14,0.00,,,0.00,Wunderground v.1.15,2013-04-23 01:25:00,
2013-04-22 18:30:00,82.2,28.2,30.15,West,276,1.0,1.0,14,0.00,,,0.00,Wunderground v.1.15,2013-04-23 01:30:00,
2013-04-22 18:40:00,81.9,31.3,30.15,West,268,1.0,1.0,16,0.00,,,0.00,Wunderground v.1.15,2013-04-23 01:40:00,
2013-04-22 18:50:00,81.5,31.0,30.14,NE,44,1.0,1.0,16,0.00,,,0.00,Wunderground v.1.15,2013-04-23 01:50:00,
2013-04-22 19:00:00,81.1,34.9,30.14,WNW,285,1.0,1.0,19,0.00,,,0.00,Wunderground v.1.15,2013-04-23 02:00:00,
2013-04-22 19:05:00,80.7,33.2,30.14,NE,49,1.0,1.0,18,0.00,,,0.00,Wunderground v.1.15,2013-04-23 02:05:00,
2013-04-22 19:15:00,80.2,34.2,30.14,East,84,1.0,1.0,19,0.00,,,0.00,Wunderground v.1.15,2013-04-23 02:15:00,
2013-04-22 19:25:00,79.3,34.7,30.14,WSW,239,0.0,1.0,20,0.00,,,0.00,Wunderground v.1.15,2013-04-23 02:25:00,
2013-04-22 19:30:00,79.3,34.7,30.15,WSW,239,0.0,0.0,20,0.00,,,0.00,Wunderground v.1.15,2013-04-23 02:30:00,
2013-04-22 19:40:00,77.3,33.1,30.15,West,259,0.0,0.0,20,0.00,,,0.00,Wunderground v.1.15,2013-04-23 02:40:00,
2013-04-22 19:50:00,76.1,33.3,30.15,West,266,1.0,1.0,21,0.00,,,0.00,Wunderground v.1.15,2013-04-23 02:50:00,
2013-04-22 19:55:00,75.4,32.7,30.15,West,266,0.0,1.0,21,0.00,,,0.00,Wunderground v.1.15,2013-04-23 02:55:00,
2013-04-22 20:00:00,74.8,33.4,30.15,WSW,257,0.0,1.0,22,0.00,,,0.00,Wunderground v.1.15,2013-04-23 03:00:00,
2013-04-22 20:10:00,74.0,32.7,30.15,SW,235,0.0,0.0,22,0.00,,,0.00,Wunderground v.1.15,2013-04-23 03:10:00,
2013-04-22 20:15:00,73.8,33.7,30.15,NW,305,0.0,0.0,23,0.00,,,0.00,Wunderground v.1.15,2013-04-23 03:15:00,
2013-04-22 20:25:00,72.9,32.9,30.15,NW,319,0.0,0.0,23,0.00,,,0.00,Wunderground v.1.15,2013-04-23 03:25:00,
2013-04-22 20:35:00,72.0,33.2,30.16,NW,319,0.0,0.0,24,0.00,,,0.00,Wunderground v.1.15,2013-04-23 03:35:00,
2013-04-22 20:45:00,71.6,33.9,30.16,ENE,70,0.0,1.0,25,0.00,,,0.00,Wunderground v.1.15,2013-04-23 03:45:00,
2013-04-22 20:50:00,72.1,35.3,30.16,NNE,24,1.0,1.0,26,0.00,,,0.00,Wunderground v.1.15,2013-04-23 03:50:00,
2013-04-22 21:00:00,72.7,36.8,30.17,West,281,1.0,1.0,27,0.00,,,0.00,Wunderground v.1.15,2013-04-23 04:00:00,
2013-04-22 21:05:00,72.4,37.4,30.17,NW,305,1.0,1.0,28,0.00,,,0.00,Wunderground v.1.15,2013-04-23 04:05:00,
2013-04-22 21:10:00,72.0,38.0,30.17,SSW,202,1.0,1.0,29,0.00,,,0.00,Wunderground v.1.15,2013-04-23 04:10:00,
2013-04-22 21:15:00,71.4,40.8,30.17,WSW,257,1.0,1.0,33,0.00,,,0.00,Wunderground v.1.15,2013-04-23 04:15:00,
2013-04-22 21:20:00,70.8,39.5,30.17,ESE,122,1.0,1.0,32,0.00,,,0.00,Wunderground v.1.15,2013-04-23 04:20:00,
2013-04-22 21:25:00,70.9,40.3,30.17,West,281,1.0,1.0,33,0.00,,,0.00,Wunderground v.1.15,2013-04-23 04:25:00,
2013-04-22 21:30:00,71.5,37.6,30.17,WSW,255,2.0,3.0,29,0.00,,,0.00,Wunderground v.1.15,2013-04-23 04:30:00,
2013-04-22 21:35:00,72.7,34.8,30.17,West,277,3.0,3.0,25,0.00,,,0.00,Wunderground v.1.15,2013-04-23 04:35:00,
2013-04-22 21:40:00,73.5,34.5,30.17,SSW,203,3.0,3.0,24,0.00,,,0.00,Wunderground v.1.15,2013-04-23 04:40:00,
2013-04-22 21:50:00,73.9,33.7,30.17,NW,321,3.0,4.0,23,0.00,,,0.00,Wunderground v.1.15,2013-04-23 04:50:00,
2013-04-22 21:55:00,73.9,33.7,30.17,WSW,257,4.0,4.0,23,0.00,,,0.00,Wunderground v.1.15,2013-04-23 04:55:00,
2013-04-22 22:00:00,74.1,32.8,30.17,SSE,150,4.0,4.0,22,0.00,,,0.00,Wunderground v.1.15,2013-04-23 05:00:00,
2013-04-22 22:10:00,73.6,34.6,30.17,NNE,25,3.0,4.0,24,0.00,,,0.00,Wunderground v.1.15,2013-04-23 05:10:00,
2013-04-22 22:20:00,73.2,33.2,30.18,NE,51,3.0,7.0,23,0.00,,,0.00,Wunderground v.1.15,2013-04-23 05:20:00,
2013-04-22 22:25:00,73.2,36.2,30.18,SW,225,3.0,7.0,26,0.00,,,0.00,Wunderground v.1.15,2013-04-23 05:25:00,
2013-04-22 22:35:00,72.6,33.7,30.18,NE,49,2.0,3.0,24,0.00,,,0.00,Wunderground v.1.15,2013-04-23 05:35:00,
2013-04-22 22:45:00,72.8,30.6,30.18,NW,305,3.0,4.0,21,0.00,,,0.00,Wunderground v.1.15,2013-04-23 05:45:00,
2013-04-22 22:55:00,72.8,30.6,30.18,West,280,4.0,4.0,21,0.00,,,0.00,Wunderground v.1.15,2013-04-23 05:55:00,
2013-04-22 23:00:00,72.9,29.4,30.18,NW,305,4.0,4.0,20,0.00,,,0.00,Wunderground v.1.15,2013-04-23 06:00:00,
2013-04-22 23:10:00,72.9,30.6,30.18,ESE,105,5.0,5.0,21,0.00,,,0.00,Wunderground v.1.15,2013-04-23 06:10:00,
2013-04-22 23:15:00,72.5,29.1,30.18,WNW,284,4.0,5.0,20,0.00,,,0.00,Wunderground v.1.15,2013-04-23 06:15:00,
2013-04-22 23:25:00,71.9,33.1,30.18,WSW,245,3.0,5.0,24,0.00,,,0.00,Wunderground v.1.15,2013-04-23 06:25:00,
2013-04-22 23:30:00,71.4,31.6,30.18,West,263,3.0,6.0,23,0.00,,,0.00,Wunderground v.1.15,2013-04-23 06:30:00,
2013-04-22 23:40:00,71.0,32.4,30.17,WNW,293,3.0,12.0,24,0.00,,,0.00,Wunderground v.1.15,2013-04-23 06:40:00,
2013-04-22 23:45:00,71.3,31.6,30.18,WSW,255,4.0,12.0,23,0.00,,,0.00,Wunderground v.1.15,2013-04-23 06:45:00,
2013-04-22 23:50:00,71.3,30.5,30.18,East,101,5.0,5.0,22,0.00,,,0.00,Wunderground v.1.15,2013-04-23 06:50:00,
2013-04-22 23:55:00,71.1,31.4,30.18,South,174,4.0,5.0,23,0.00,,,0.00,Wunderground v.1.15,2013-04-23 06:55:00,